TGL25C LFPG-LFRS
Flight info
| Callsign | TGL25C |
|---|---|
| Flight time | 0h 46m |
| Altitude | 27000 |
| Route | LGL UT176 ROLEN UZ15 ARDOD A5 VALAX |
| Aircraft | A320/M-SDE3FGHIRWY/LB1 |
Departure
| Time | 2026-05-06 14:44 |
|---|---|
| Airport | Charles de Gaulle International Airport (LFPG) |
Arrival
| Time | 2026-05-06 15:30 |
|---|---|
| Airport | Nantes Atlantique Airport (LFRS) |
| Time | Latitude | Longitude | Altitude | Speed | Heading |
|---|---|---|---|---|---|
| 2026-05-06 13:56 | 49.00523 | 2.56095 | 355 ft | 0 kts | 165° |
| 2026-05-06 14:30 | 49.00536 | 2.56089 | 363 ft | 3 kts | 167° |
| 2026-05-06 14:30 | 49.00556 | 2.56083 | 357 ft | 3 kts | 176° |
| 2026-05-06 14:30 | 49.00575 | 2.56084 | 361 ft | 3 kts | 203° |
| 2026-05-06 14:30 | 49.00587 | 2.56098 | 361 ft | 2 kts | 255° |
| 2026-05-06 14:31 | 49.00587 | 2.56100 | 361 ft | 1 kts | 255° |
| 2026-05-06 14:33 | 49.00587 | 2.56099 | 354 ft | 1 kts | 255° |
| 2026-05-06 14:33 | 49.00580 | 2.56061 | 359 ft | 7 kts | 252° |
| 2026-05-06 14:34 | 49.00565 | 2.55959 | 361 ft | 12 kts | 268° |
| 2026-05-06 14:34 | 49.00565 | 2.55811 | 359 ft | 15 kts | 266° |
| 2026-05-06 14:34 | 49.00557 | 2.55636 | 354 ft | 18 kts | 265° |
| 2026-05-06 14:34 | 49.00550 | 2.55512 | 361 ft | 5 kts | 266° |
| 2026-05-06 14:35 | 49.00558 | 2.55442 | 354 ft | 9 kts | 300° |
| 2026-05-06 14:35 | 49.00623 | 2.55396 | 358 ft | 12 kts | 345° |
| 2026-05-06 14:35 | 49.00716 | 2.55354 | 359 ft | 16 kts | 343° |
| 2026-05-06 14:35 | 49.00828 | 2.55306 | 354 ft | 17 kts | 344° |
| 2026-05-06 14:36 | 49.00947 | 2.55253 | 359 ft | 18 kts | 344° |
| 2026-05-06 14:36 | 49.01071 | 2.55200 | 361 ft | 19 kts | 344° |
| 2026-05-06 14:36 | 49.01193 | 2.55147 | 357 ft | 18 kts | 343° |
| 2026-05-06 14:36 | 49.01315 | 2.55093 | 354 ft | 19 kts | 343° |
| 2026-05-06 14:37 | 49.01449 | 2.55042 | 359 ft | 21 kts | 349° |
| 2026-05-06 14:37 | 49.01593 | 2.55021 | 357 ft | 21 kts | 355° |
| 2026-05-06 14:37 | 49.01744 | 2.55002 | 361 ft | 22 kts | 356° |
| 2026-05-06 14:37 | 49.01855 | 2.55051 | 357 ft | 17 kts | 68° |
| 2026-05-06 14:38 | 49.01869 | 2.55228 | 359 ft | 16 kts | 86° |
| 2026-05-06 14:38 | 49.01877 | 2.55388 | 361 ft | 14 kts | 85° |
| 2026-05-06 14:38 | 49.01885 | 2.55534 | 354 ft | 13 kts | 84° |
| 2026-05-06 14:38 | 49.01893 | 2.55661 | 357 ft | 11 kts | 85° |
| 2026-05-06 14:39 | 49.01899 | 2.55771 | 354 ft | 10 kts | 85° |
| 2026-05-06 14:39 | 49.01904 | 2.55870 | 360 ft | 9 kts | 85° |
| 2026-05-06 14:39 | 49.01909 | 2.55955 | 354 ft | 8 kts | 85° |
| 2026-05-06 14:39 | 49.01913 | 2.56033 | 354 ft | 9 kts | 85° |
| 2026-05-06 14:40 | 49.01920 | 2.56170 | 356 ft | 16 kts | 85° |
| 2026-05-06 14:40 | 49.01964 | 2.56300 | 358 ft | 14 kts | 33° |
| 2026-05-06 14:40 | 49.02064 | 2.56319 | 354 ft | 16 kts | 355° |
| 2026-05-06 14:40 | 49.02178 | 2.56304 | 354 ft | 15 kts | 355° |
| 2026-05-06 14:41 | 49.02212 | 2.56296 | 363 ft | 0 kts | 347° |
| 2026-05-06 14:42 | 49.02214 | 2.56295 | 354 ft | 2 kts | 347° |
| 2026-05-06 14:42 | 49.02251 | 2.56265 | 361 ft | 10 kts | 319° |
| 2026-05-06 14:42 | 49.02307 | 2.56164 | 360 ft | 13 kts | 303° |
| 2026-05-06 14:42 | 49.02317 | 2.56049 | 360 ft | 0 kts | 265° |
| 2026-05-06 14:43 | 49.02316 | 2.56037 | 356 ft | 11 kts | 265° |
| 2026-05-06 14:43 | 49.02287 | 2.55486 | 354 ft | 89 kts | 265° |
| 2026-05-06 14:43 | 49.02223 | 2.54238 | 360 ft | 145 kts | 265° |
| 2026-05-06 14:43 | 49.02115 | 2.52593 | 832 ft | 156 kts | 267° |
| 2026-05-06 14:44 | 49.02023 | 2.50956 | 1626 ft | 155 kts | 269° |
| 2026-05-06 14:44 | 49.01938 | 2.49312 | 2354 ft | 160 kts | 269° |
| 2026-05-06 14:44 | 49.01848 | 2.47520 | 2736 ft | 181 kts | 269° |
| 2026-05-06 14:45 | 49.01631 | 2.43179 | 3579 ft | 230 kts | 268° |
| 2026-05-06 14:45 | 49.01495 | 2.40627 | 4073 ft | 252 kts | 268° |
| 2026-05-06 14:45 | 49.01344 | 2.37907 | 4893 ft | 261 kts | 268° |
| 2026-05-06 14:45 | 49.01245 | 2.35125 | 5800 ft | 265 kts | 272° |
| 2026-05-06 14:46 | 49.01363 | 2.32301 | 6666 ft | 269 kts | 281° |
| 2026-05-06 14:46 | 49.01712 | 2.29519 | 7522 ft | 272 kts | 285° |
| 2026-05-06 14:46 | 49.02145 | 2.26709 | 8460 ft | 274 kts | 284° |
| 2026-05-06 14:46 | 49.02583 | 2.23861 | 9338 ft | 278 kts | 283° |
| 2026-05-06 14:47 | 49.03003 | 2.20969 | 10170 ft | 285 kts | 283° |
| 2026-05-06 14:47 | 49.03422 | 2.17894 | 10480 ft | 308 kts | 283° |
| 2026-05-06 14:47 | 49.03843 | 2.14573 | 10849 ft | 327 kts | 280° |
| 2026-05-06 14:47 | 49.04113 | 2.11076 | 11514 ft | 335 kts | 276° |
| 2026-05-06 14:48 | 49.04315 | 2.07514 | 12273 ft | 340 kts | 275° |
| 2026-05-06 14:48 | 49.04487 | 2.03905 | 13043 ft | 344 kts | 275° |
| 2026-05-06 14:48 | 49.04652 | 2.00246 | 13784 ft | 348 kts | 274° |
| 2026-05-06 14:48 | 49.04820 | 1.96548 | 14467 ft | 351 kts | 275° |
| 2026-05-06 14:49 | 49.04996 | 1.92820 | 15161 ft | 355 kts | 274° |
| 2026-05-06 14:49 | 49.05180 | 1.89055 | 15876 ft | 357 kts | 274° |
| 2026-05-06 14:49 | 49.05369 | 1.85261 | 16526 ft | 360 kts | 274° |
| 2026-05-06 14:49 | 49.05559 | 1.81436 | 17169 ft | 364 kts | 274° |
| 2026-05-06 14:50 | 49.05750 | 1.77565 | 17821 ft | 368 kts | 274° |
| 2026-05-06 14:50 | 49.05940 | 1.73654 | 18428 ft | 371 kts | 274° |
| 2026-05-06 14:50 | 49.06132 | 1.69713 | 19004 ft | 374 kts | 274° |
| 2026-05-06 14:50 | 49.06325 | 1.65742 | 19550 ft | 377 kts | 274° |
| 2026-05-06 14:51 | 49.06364 | 1.61728 | 20098 ft | 381 kts | 266° |
| 2026-05-06 14:51 | 49.06064 | 1.57696 | 20624 ft | 385 kts | 263° |
| 2026-05-06 14:51 | 49.05736 | 1.53617 | 21206 ft | 390 kts | 263° |
| 2026-05-06 14:51 | 49.05402 | 1.49493 | 21800 ft | 394 kts | 263° |
| 2026-05-06 14:52 | 49.05063 | 1.45327 | 22311 ft | 397 kts | 264° |
| 2026-05-06 14:52 | 49.04722 | 1.41132 | 22804 ft | 401 kts | 264° |
| 2026-05-06 14:52 | 49.04381 | 1.36902 | 23282 ft | 404 kts | 264° |
| 2026-05-06 14:52 | 49.04040 | 1.32679 | 23711 ft | 408 kts | 265° |
| 2026-05-06 14:53 | 49.03691 | 1.28384 | 24148 ft | 409 kts | 264° |
| 2026-05-06 14:53 | 49.03240 | 1.24040 | 24600 ft | 412 kts | 257° |
| 2026-05-06 14:53 | 49.02368 | 1.19938 | 24984 ft | 415 kts | 248° |
| 2026-05-06 14:53 | 49.01074 | 1.15983 | 25393 ft | 418 kts | 243° |
| 2026-05-06 14:54 | 48.99713 | 1.12047 | 25793 ft | 421 kts | 244° |
| 2026-05-06 14:54 | 48.98354 | 1.08089 | 26198 ft | 424 kts | 243° |
| 2026-05-06 14:54 | 48.96991 | 1.04104 | 26597 ft | 426 kts | 243° |
| 2026-05-06 14:54 | 48.95618 | 1.00094 | 26888 ft | 428 kts | 244° |
| 2026-05-06 14:55 | 48.94237 | 0.96077 | 26942 ft | 428 kts | 243° |
| 2026-05-06 14:55 | 48.92849 | 0.92068 | 26950 ft | 428 kts | 243° |
| 2026-05-06 14:55 | 48.91460 | 0.88071 | 26946 ft | 428 kts | 244° |
| 2026-05-06 14:55 | 48.90072 | 0.84077 | 26950 ft | 427 kts | 244° |
| 2026-05-06 14:56 | 48.88688 | 0.80091 | 26954 ft | 426 kts | 243° |
| 2026-05-06 14:56 | 48.87298 | 0.76113 | 26953 ft | 426 kts | 243° |
| 2026-05-06 14:56 | 48.85898 | 0.72148 | 26961 ft | 426 kts | 244° |
| 2026-05-06 14:56 | 48.84489 | 0.68190 | 26951 ft | 426 kts | 243° |
| 2026-05-06 14:57 | 48.83075 | 0.64241 | 26947 ft | 426 kts | 243° |
| 2026-05-06 14:57 | 48.81658 | 0.60292 | 26961 ft | 426 kts | 244° |
| 2026-05-06 14:57 | 48.80242 | 0.56343 | 26956 ft | 426 kts | 242° |
| 2026-05-06 14:57 | 48.78697 | 0.52512 | 26951 ft | 427 kts | 236° |
| 2026-05-06 14:58 | 48.76819 | 0.49015 | 26958 ft | 428 kts | 230° |
| 2026-05-06 14:58 | 48.74887 | 0.45584 | 26958 ft | 427 kts | 230° |
| 2026-05-06 14:58 | 48.73009 | 0.42250 | 26952 ft | 417 kts | 230° |
| 2026-05-06 14:58 | 48.71138 | 0.38928 | 26948 ft | 413 kts | 231° |
| 2026-05-06 14:59 | 48.69279 | 0.35624 | 26957 ft | 412 kts | 231° |
| 2026-05-06 14:59 | 48.67422 | 0.32329 | 26961 ft | 411 kts | 231° |
| 2026-05-06 14:59 | 48.65540 | 0.28994 | 26964 ft | 411 kts | 230° |
| 2026-05-06 14:59 | 48.63703 | 0.25741 | 26972 ft | 413 kts | 230° |
| 2026-05-06 15:00 | 48.61839 | 0.22445 | 26972 ft | 413 kts | 230° |
| 2026-05-06 15:00 | 48.59968 | 0.19141 | 26972 ft | 414 kts | 231° |
| 2026-05-06 15:00 | 48.58065 | 0.15881 | 26973 ft | 414 kts | 226° |
| 2026-05-06 15:00 | 48.55913 | 0.12975 | 26968 ft | 415 kts | 222° |
| 2026-05-06 15:01 | 48.53711 | 0.10167 | 26972 ft | 415 kts | 221° |
| 2026-05-06 15:01 | 48.51505 | 0.07359 | 26963 ft | 415 kts | 221° |
| 2026-05-06 15:01 | 48.49302 | 0.04555 | 26965 ft | 415 kts | 221° |
| 2026-05-06 15:01 | 48.47098 | 0.01748 | 26970 ft | 415 kts | 221° |
| 2026-05-06 15:02 | 48.44895 | -0.01056 | 26972 ft | 415 kts | 221° |
| 2026-05-06 15:02 | 48.42687 | -0.03861 | 26987 ft | 414 kts | 221° |
| 2026-05-06 15:02 | 48.40486 | -0.06652 | 26990 ft | 414 kts | 221° |
| 2026-05-06 15:02 | 48.38289 | -0.09441 | 26986 ft | 413 kts | 221° |
| 2026-05-06 15:03 | 48.36091 | -0.12232 | 26985 ft | 413 kts | 221° |
| 2026-05-06 15:03 | 48.33897 | -0.15014 | 26985 ft | 412 kts | 221° |
| 2026-05-06 15:03 | 48.31717 | -0.17770 | 26984 ft | 412 kts | 221° |
| 2026-05-06 15:03 | 48.29531 | -0.20525 | 26981 ft | 412 kts | 221° |
| 2026-05-06 15:04 | 48.27333 | -0.23287 | 26977 ft | 412 kts | 221° |
| 2026-05-06 15:04 | 48.25132 | -0.26049 | 26979 ft | 412 kts | 221° |
| 2026-05-06 15:04 | 48.22936 | -0.28805 | 26974 ft | 412 kts | 221° |
| 2026-05-06 15:04 | 48.20738 | -0.31564 | 26965 ft | 412 kts | 221° |
| 2026-05-06 15:05 | 48.18541 | -0.34323 | 26957 ft | 412 kts | 221° |
| 2026-05-06 15:05 | 48.16343 | -0.37080 | 26957 ft | 413 kts | 221° |
| 2026-05-06 15:05 | 48.14137 | -0.39843 | 26957 ft | 413 kts | 221° |
| 2026-05-06 15:05 | 48.11931 | -0.42603 | 26959 ft | 413 kts | 221° |
| 2026-05-06 15:06 | 48.09726 | -0.45358 | 26844 ft | 413 kts | 221° |
| 2026-05-06 15:06 | 48.07525 | -0.48105 | 26574 ft | 410 kts | 221° |
| 2026-05-06 15:06 | 48.05338 | -0.50829 | 26343 ft | 408 kts | 221° |
| 2026-05-06 15:06 | 48.03165 | -0.53528 | 26044 ft | 404 kts | 221° |
| 2026-05-06 15:07 | 48.01014 | -0.56195 | 25552 ft | 399 kts | 221° |
| 2026-05-06 15:07 | 47.98886 | -0.58832 | 25050 ft | 396 kts | 221° |
| 2026-05-06 15:07 | 47.96777 | -0.61448 | 24561 ft | 392 kts | 221° |
| 2026-05-06 15:07 | 47.94685 | -0.64037 | 24070 ft | 389 kts | 221° |
| 2026-05-06 15:08 | 47.92614 | -0.66597 | 23613 ft | 385 kts | 221° |
| 2026-05-06 15:08 | 47.90559 | -0.69139 | 23097 ft | 381 kts | 221° |
| 2026-05-06 15:08 | 47.88531 | -0.71648 | 22643 ft | 377 kts | 221° |
| 2026-05-06 15:08 | 47.86525 | -0.74127 | 22193 ft | 373 kts | 221° |
| 2026-05-06 15:09 | 47.84542 | -0.76578 | 21744 ft | 369 kts | 221° |
| 2026-05-06 15:09 | 47.82573 | -0.79005 | 21288 ft | 366 kts | 221° |
| 2026-05-06 15:09 | 47.80616 | -0.81413 | 20829 ft | 364 kts | 221° |
| 2026-05-06 15:09 | 47.78671 | -0.83803 | 20368 ft | 362 kts | 221° |
| 2026-05-06 15:10 | 47.76734 | -0.86178 | 19906 ft | 360 kts | 221° |
| 2026-05-06 15:10 | 47.74806 | -0.88539 | 19433 ft | 359 kts | 221° |
| 2026-05-06 15:10 | 47.72879 | -0.90892 | 18977 ft | 358 kts | 221° |
| 2026-05-06 15:10 | 47.70956 | -0.93237 | 18512 ft | 357 kts | 221° |
| 2026-05-06 15:11 | 47.69034 | -0.95580 | 18015 ft | 357 kts | 221° |
| 2026-05-06 15:11 | 47.67143 | -0.97881 | 17544 ft | 356 kts | 221° |
| 2026-05-06 15:11 | 47.65234 | -1.00198 | 17087 ft | 353 kts | 221° |
| 2026-05-06 15:11 | 47.63338 | -1.02500 | 16633 ft | 351 kts | 221° |
| 2026-05-06 15:12 | 47.61451 | -1.04788 | 16187 ft | 350 kts | 220° |
| 2026-05-06 15:12 | 47.59568 | -1.07062 | 15739 ft | 348 kts | 220° |
| 2026-05-06 15:12 | 47.57694 | -1.09323 | 15299 ft | 347 kts | 220° |
| 2026-05-06 15:12 | 47.55829 | -1.11573 | 14864 ft | 346 kts | 221° |
| 2026-05-06 15:13 | 47.53976 | -1.13865 | 14413 ft | 347 kts | 221° |
| 2026-05-06 15:13 | 47.52144 | -1.16184 | 13968 ft | 346 kts | 222° |
| 2026-05-06 15:13 | 47.50321 | -1.18515 | 13493 ft | 346 kts | 222° |
| 2026-05-06 15:13 | 47.48508 | -1.20833 | 13034 ft | 343 kts | 222° |
| 2026-05-06 15:14 | 47.46706 | -1.23126 | 12600 ft | 341 kts | 222° |
| 2026-05-06 15:14 | 47.44913 | -1.25392 | 12157 ft | 338 kts | 223° |
| 2026-05-06 15:14 | 47.43308 | -1.27882 | 11762 ft | 332 kts | 234° |
| 2026-05-06 15:14 | 47.41908 | -1.30569 | 11455 ft | 329 kts | 234° |
| 2026-05-06 15:15 | 47.40509 | -1.33236 | 11120 ft | 327 kts | 234° |
| 2026-05-06 15:15 | 47.39116 | -1.35880 | 10799 ft | 325 kts | 234° |
| 2026-05-06 15:15 | 47.37727 | -1.38512 | 10474 ft | 324 kts | 234° |
| 2026-05-06 15:15 | 47.36370 | -1.41082 | 10236 ft | 317 kts | 233° |
| 2026-05-06 15:16 | 47.35020 | -1.43631 | 10102 ft | 306 kts | 233° |
| 2026-05-06 15:16 | 47.33730 | -1.46064 | 9961 ft | 297 kts | 234° |
| 2026-05-06 15:16 | 47.32472 | -1.48442 | 9804 ft | 292 kts | 234° |
| 2026-05-06 15:16 | 47.31244 | -1.50769 | 9553 ft | 291 kts | 234° |
| 2026-05-06 15:17 | 47.30005 | -1.53117 | 9292 ft | 290 kts | 234° |
| 2026-05-06 15:17 | 47.28766 | -1.55461 | 9033 ft | 289 kts | 234° |
| 2026-05-06 15:17 | 47.27529 | -1.57797 | 8774 ft | 289 kts | 234° |
| 2026-05-06 15:17 | 47.26294 | -1.60130 | 8518 ft | 288 kts | 234° |
| 2026-05-06 15:18 | 47.25064 | -1.62447 | 8260 ft | 287 kts | 233° |
| 2026-05-06 15:18 | 47.23830 | -1.64762 | 8001 ft | 287 kts | 233° |
| 2026-05-06 15:18 | 47.22607 | -1.67056 | 7747 ft | 283 kts | 233° |
| 2026-05-06 15:18 | 47.21413 | -1.69289 | 7605 ft | 272 kts | 233° |
| 2026-05-06 15:19 | 47.20261 | -1.71443 | 7479 ft | 263 kts | 233° |
| 2026-05-06 15:19 | 47.18991 | -1.73329 | 7349 ft | 256 kts | 217° |
| 2026-05-06 15:19 | 47.17458 | -1.74597 | 7172 ft | 251 kts | 206° |
| 2026-05-06 15:19 | 47.15879 | -1.75676 | 7012 ft | 251 kts | 206° |
| 2026-05-06 15:20 | 47.14317 | -1.76754 | 6821 ft | 252 kts | 206° |
| 2026-05-06 15:20 | 47.12735 | -1.77841 | 6626 ft | 251 kts | 206° |
| 2026-05-06 15:20 | 47.11153 | -1.78927 | 6431 ft | 251 kts | 206° |
| 2026-05-06 15:20 | 47.09576 | -1.80010 | 6233 ft | 250 kts | 206° |
| 2026-05-06 15:21 | 47.08004 | -1.81088 | 6043 ft | 249 kts | 206° |
| 2026-05-06 15:21 | 47.06439 | -1.82160 | 5835 ft | 248 kts | 205° |
| 2026-05-06 15:21 | 47.05382 | -1.82883 | 5703 ft | 248 kts | 205° |
| 2026-05-06 15:21 | 47.03318 | -1.84291 | 5474 ft | 246 kts | 205° |
| 2026-05-06 15:22 | 47.02268 | -1.85010 | 5365 ft | 246 kts | 205° |
| 2026-05-06 15:22 | 47.00722 | -1.86069 | 5177 ft | 245 kts | 205° |
| 2026-05-06 15:22 | 46.99135 | -1.86821 | 4989 ft | 244 kts | 182° |
| 2026-05-06 15:22 | 46.97503 | -1.86362 | 4792 ft | 238 kts | 150° |
| 2026-05-06 15:23 | 46.96286 | -1.84828 | 4576 ft | 229 kts | 120° |
| 2026-05-06 15:23 | 46.95542 | -1.82807 | 4357 ft | 224 kts | 114° |
| 2026-05-06 15:23 | 46.94866 | -1.80783 | 4164 ft | 219 kts | 105° |
| 2026-05-06 15:23 | 46.94732 | -1.78623 | 3964 ft | 212 kts | 76° |
| 2026-05-06 15:24 | 46.95310 | -1.76695 | 3788 ft | 206 kts | 49° |
| 2026-05-06 15:24 | 46.96403 | -1.75416 | 3609 ft | 200 kts | 26° |
| 2026-05-06 15:24 | 46.97626 | -1.74501 | 3457 ft | 195 kts | 27° |
| 2026-05-06 15:24 | 46.98798 | -1.73619 | 3306 ft | 184 kts | 27° |
| 2026-05-06 15:25 | 46.99903 | -1.72784 | 3154 ft | 171 kts | 27° |
| 2026-05-06 15:25 | 47.00884 | -1.72040 | 3071 ft | 148 kts | 27° |
| 2026-05-06 15:25 | 47.01770 | -1.71369 | 2842 ft | 138 kts | 27° |
| 2026-05-06 15:25 | 47.02616 | -1.70727 | 2631 ft | 136 kts | 27° |
| 2026-05-06 15:26 | 47.03447 | -1.70095 | 2453 ft | 135 kts | 27° |
| 2026-05-06 15:26 | 47.04283 | -1.69463 | 2272 ft | 135 kts | 27° |
| 2026-05-06 15:26 | 47.05116 | -1.68835 | 2086 ft | 135 kts | 27° |
| 2026-05-06 15:26 | 47.05931 | -1.68218 | 1906 ft | 134 kts | 27° |
| 2026-05-06 15:27 | 47.06758 | -1.67591 | 1738 ft | 134 kts | 27° |
| 2026-05-06 15:27 | 47.07586 | -1.66964 | 1546 ft | 134 kts | 26° |
| 2026-05-06 15:27 | 47.08414 | -1.66333 | 1382 ft | 133 kts | 26° |
| 2026-05-06 15:27 | 47.09234 | -1.65710 | 1201 ft | 132 kts | 27° |
| 2026-05-06 15:28 | 47.10043 | -1.65095 | 1025 ft | 133 kts | 26° |
| 2026-05-06 15:28 | 47.10860 | -1.64473 | 838 ft | 132 kts | 26° |
| 2026-05-06 15:28 | 47.11681 | -1.63851 | 620 ft | 133 kts | 27° |
| 2026-05-06 15:28 | 47.12497 | -1.63209 | 447 ft | 132 kts | 28° |
| 2026-05-06 15:29 | 47.13322 | -1.62586 | 383 ft | 134 kts | 25° |
| 2026-05-06 15:29 | 47.14163 | -1.61977 | 136 ft | 133 kts | 27° |
| 2026-05-06 15:29 | 47.14932 | -1.61357 | 99 ft | 115 kts | 26° |
| 2026-05-06 15:29 | 47.15504 | -1.60933 | 100 ft | 68 kts | 27° |
| 2026-05-06 15:30 | 47.15787 | -1.60714 | 97 ft | 26 kts | 34° |
| 2026-05-06 15:30 | 47.15834 | -1.60580 | 99 ft | 15 kts | 110° |
| 2026-05-06 15:30 | 47.15810 | -1.60524 | 100 ft | 0 kts | 127° |
| 2026-05-06 15:31 | 47.15769 | -1.60463 | 100 ft | 14 kts | 142° |
| 2026-05-06 15:32 | 47.15642 | -1.60319 | 101 ft | 11 kts | 140° |
| 2026-05-06 15:32 | 47.15615 | -1.60237 | 101 ft | 8 kts | 77° |
| 2026-05-06 15:32 | 47.15643 | -1.60169 | 101 ft | 3 kts | 58° |
| 2026-05-06 15:32 | 47.15647 | -1.60156 | 101 ft | 0 kts | 60° |